Pagina principale
METAR-TAF:

METAR-TAF

Aeroporti :

Aeroporto Internazionale Lynden Pindling

Nassau, Bahamas

latitudine: 25-03N, longitudine: 077-28W, altezza: 3 m

Osservazione

Il bollettino è stato emesso 39 minuti fa, alle 14:00 UTC
Vento 11 kt da sud
Temperature 25°C
Umidità 83%
Pressione 1021 hPa
Visibilità 10 km o più
Nuvoloso ad un'altezza di 1800 ft

METAR: MYNN 181400Z 17011KT 9999 BKN018 25/22 A3016

Ora: 09:39 (14:39 UTC)

Previsione

Il bollettino è stato emesso 3 ore e 39 minuti fa, alle 11:00 UTC
Previsione valida dal 18 alle 12 UTC al 19 alle 12 UTC
Vento 8 kt da sud/sud-est
Visibilità 10 km o più
Poco nuvoloso ad un'altezza di 3500 ft
Nubi sparse ad un'altezza di 5900 ft

TAF: MYNN 181100Z 1812/1912 15008KT 9999 FEW035 SCT059

Osservazioni e previsioni meteorologiche di più di 4000 aeroporti (messaggi METAR e TAF).

Le stazioni disponibili sono rappresentate dai dischi gialli e rossi sulla carta.

Puntare il mouse per vedere il nome della stazione.

Clicca sopra per visualizzare le osservazioni e previsioni meteorologiche.

Per cambiare la mappa : fare clic sui pulsanti verdi con una croce nera per ingrandire, il pulsante verde con un trattino per diminuire, o sulla freccia verde per le mappe adiacenti.


METAR-TAF: